Time;durP1;ratioP1;P1;durP2;ratioP2;P2;SDS_P1;SDS_P2;PMS_P1;PMS_P2;Temp;Humidity;BMP_temperature;BMP_pressure;BME280_temperature;BME280_humidity;BME280_pressure;Samples;Min_cycle;Max_cycle;Signal;HPM_P1;HPM_P2
2022/11/13 00:00:29;;;;;;;55.10;32.92;;;21.20;55.30;;;;;;5086562;28;20048;-59
2022/11/13 00:03:15;;;;;;;62.17;32.95;;;21.30;55.30;;;;;;5087657;28;20040;-61
2022/11/13 00:06:01;;;;;;;56.53;32.95;;;21.30;55.30;;;;;;5080827;28;20165;-62
2022/11/13 00:08:46;;;;;;;45.22;28.17;;;21.20;55.30;;;;;;5068677;28;20051;-62
2022/11/13 00:11:32;;;;;;;49.00;27.15;;;21.30;55.20;;;;;;5078818;28;20048;-63
2022/11/13 00:14:18;;;;;;;44.55;27.05;;;21.20;55.20;;;;;;5088920;28;20044;-63
2022/11/13 00:17:05;;;;;;;39.17;24.70;;;21.30;55.20;;;;;;5088722;28;20512;-62
2022/11/13 00:19:50;;;;;;;48.00;24.83;;;21.30;55.10;;;;;;5088650;28;20044;-63
2022/11/13 00:22:36;;;;;;;37.20;23.50;;;21.30;55.10;;;;;;5088142;28;20043;-62
2022/11/13 00:25:21;;;;;;;38.20;21.25;;;21.30;55.00;;;;;;5088103;28;20063;-63
2022/11/13 00:28:07;;;;;;;35.53;20.33;;;21.20;54.90;;;;;;5088779;28;20118;-62
2022/11/13 00:30:58;;;;;;;32.38;19.45;;;21.30;55.00;;;;;;5088539;28;20048;-63
2022/11/13 00:33:45;;;;;;;29.20;18.10;;;21.20;54.90;;;;;;5071281;28;20116;-62
2022/11/13 00:36:31;;;;;;;31.63;19.88;;;21.20;54.90;;;;;;5067982;28;20412;-62
2022/11/13 00:39:17;;;;;;;26.48;16.73;;;21.20;54.90;;;;;;5067828;28;20121;-62
2022/11/13 00:42:02;;;;;;;24.88;16.90;;;21.20;54.90;;;;;;5067884;28;20064;-61
2022/11/13 00:44:47;;;;;;;33.97;16.52;;;21.20;54.90;;;;;;5073958;28;20879;-61
2022/11/13 00:47:33;;;;;;;24.23;15.18;;;21.20;54.80;;;;;;5088400;28;20528;-62
2022/11/13 00:50:20;;;;;;;26.75;15.00;;;21.20;54.80;;;;;;5088272;28;20055;-62
2022/11/13 00:53:06;;;;;;;21.02;13.07;;;21.20;54.80;;;;;;5088018;28;20107;-61
2022/11/13 00:55:52;;;;;;;21.15;13.73;;;21.20;54.80;;;;;;5087866;28;20051;-62
2022/11/13 00:58:37;;;;;;;18.83;11.95;;;21.20;54.80;;;;;;5088421;28;20398;-62
2022/11/13 01:01:23;;;;;;;18.67;12.07;;;21.20;54.70;;;;;;5088229;28;20043;-62
2022/11/13 01:04:08;;;;;;;17.13;10.88;;;21.20;54.60;;;;;;5088388;28;20818;-63
2022/11/13 01:06:55;;;;;;;17.88;10.10;;;21.20;54.60;;;;;;5088986;28;20522;-62
2022/11/13 01:09:41;;;;;;;18.48;9.65;;;21.20;54.60;;;;;;5067733;28;20416;-62
2022/11/13 01:12:27;;;;;;;16.40;10.27;;;21.20;54.60;;;;;;5086039;28;20119;-61
2022/11/13 01:15:12;;;;;;;13.00;9.15;;;21.20;54.40;;;;;;5088060;28;20513;-63
2022/11/13 01:17:58;;;;;;;13.02;8.70;;;21.20;54.40;;;;;;5088452;28;20423;-62
2022/11/13 01:20:44;;;;;;;13.07;8.27;;;21.10;54.30;;;;;;5083797;28;20093;-63
2022/11/13 01:23:31;;;;;;;12.40;7.70;;;21.10;54.30;;;;;;5067637;28;20055;-62
2022/11/13 01:26:19;;;;;;;11.75;7.55;;;21.10;54.30;;;;;;5067619;28;20136;-62
2022/11/13 01:29:06;;;;;;;9.80;7.43;;;21.10;54.30;;;;;;5067710;28;20056;-61
2022/11/13 01:31:51;;;;;;;12.65;8.05;;;21.10;54.30;;;;;;5067741;28;20040;-63
2022/11/13 01:34:37;;;;;;;15.00;7.47;;;21.10;54.30;;;;;;5067729;28;20039;-62
2022/11/13 01:37:22;;;;;;;11.27;7.45;;;21.10;54.30;;;;;;5067042;28;20125;-62
2022/11/13 01:40:12;;;;;;;10.18;6.60;;;21.10;54.30;;;;;;5069215;28;20045;-63
2022/11/13 01:42:58;;;;;;;12.07;6.63;;;21.10;54.30;;;;;;5067426;28;20052;-62
2022/11/13 01:46:21;;;;;;;9.10;5.72;;;21.10;54.30;;;;;;5081162;28;20068;-62
2022/11/13 01:49:20;;;;;;;9.88;6.32;;;21.10;54.20;;;;;;5087820;28;20496;-63
2022/11/13 01:52:09;;;;;;;6.95;5.35;;;21.10;54.20;;;;;;5087069;28;20531;-63
2022/11/13 01:54:59;;;;;;;7.70;5.32;;;21.00;54.20;;;;;;5087982;28;20441;-63
2022/11/13 01:57:46;;;;;;;10.60;5.63;;;21.00;54.20;;;;;;5087498;28;20044;-60
2022/11/13 02:00:31;;;;;;;8.77;5.22;;;21.00;54.10;;;;;;5087581;28;20119;-60
2022/11/13 02:03:17;;;;;;;11.37;6.27;;;21.00;54.20;;;;;;5087463;28;20157;-60
2022/11/13 02:06:02;;;;;;;7.15;6.00;;;21.00;54.20;;;;;;5087258;28;20132;-61
2022/11/13 02:08:50;;;;;;;6.40;5.30;;;21.00;54.30;;;;;;5091131;28;20044;-61
2022/11/13 02:11:37;;;;;;;8.68;5.10;;;21.00;54.20;;;;;;5082097;28;20082;-61
2022/11/13 02:14:26;;;;;;;8.38;5.80;;;21.00;54.20;;;;;;5090849;28;20051;-60
2022/11/13 02:17:18;;;;;;;5.97;4.90;;;21.00;54.20;;;;;;5091115;28;20165;-61
2022/11/13 02:20:06;;;;;;;7.72;4.93;;;21.00;54.10;;;;;;5091076;28;20036;-61
2022/11/13 02:22:59;;;;;;;5.97;5.38;;;21.00;54.20;;;;;;5072577;28;20287;-60
2022/11/13 02:25:50;;;;;;;7.10;4.72;;;21.00;54.20;;;;;;5090816;28;20051;-61
2022/11/13 02:28:35;;;;;;;7.30;5.10;;;20.90;54.10;;;;;;5090416;28;20048;-61
2022/11/13 02:31:21;;;;;;;8.97;5.43;;;20.90;54.10;;;;;;5090459;28;20098;-62
2022/11/13 02:34:07;;;;;;;5.32;4.63;;;20.90;54.10;;;;;;5090656;28;20282;-62
2022/11/13 02:36:52;;;;;;;5.78;4.72;;;20.90;54.10;;;;;;5090189;28;20051;-62
2022/11/13 02:39:37;;;;;;;7.22;5.45;;;20.90;54.20;;;;;;5090752;28;20055;-62
2022/11/13 02:42:24;;;;;;;7.18;4.72;;;20.90;54.10;;;;;;5090361;28;20063;-60
2022/11/13 02:45:10;;;;;;;6.10;4.90;;;20.90;54.10;;;;;;5090524;28;20109;-62
2022/11/13 02:47:56;;;;;;;6.70;4.03;;;20.90;54.10;;;;;;5090641;28;20134;-62
2022/11/13 02:50:42;;;;;;;6.15;5.18;;;20.90;54.10;;;;;;5090257;28;20032;-63
2022/11/13 02:53:27;;;;;;;6.88;5.43;;;20.90;54.00;;;;;;5090682;28;20048;-63
2022/11/13 02:56:13;;;;;;;5.45;4.57;;;20.90;54.00;;;;;;5090258;28;20040;-62
2022/11/13 02:59:00;;;;;;;5.38;4.55;;;20.90;54.10;;;;;;5076304;28;20041;-62
2022/11/13 03:01:46;;;;;;;8.23;5.50;;;20.80;54.10;;;;;;5070067;28;20041;-62
2022/11/13 03:04:32;;;;;;;6.97;5.55;;;20.80;54.10;;;;;;5070062;28;20044;-62
2022/11/13 03:07:18;;;;;;;5.88;5.38;;;20.80;54.00;;;;;;5070150;28;20050;-62
2022/11/13 03:10:04;;;;;;;6.68;3.63;;;20.80;54.10;;;;;;5070304;28;20048;-63
2022/11/13 03:12:49;;;;;;;7.70;5.55;;;20.80;54.00;;;;;;5073996;28;20782;-62
2022/11/13 03:15:36;;;;;;;6.22;4.35;;;20.80;54.10;;;;;;5082315;28;20412;-62
2022/11/13 03:18:22;;;;;;;6.28;4.97;;;20.80;54.10;;;;;;5090099;28;20217;-62
2022/11/13 03:21:10;;;;;;;4.65;4.10;;;20.80;54.10;;;;;;5089942;28;20115;-62
2022/11/13 03:23:55;;;;;;;4.32;3.92;;;20.80;54.10;;;;;;5089812;28;20032;-62
2022/11/13 03:26:41;;;;;;;4.45;4.05;;;20.80;54.10;;;;;;5089919;28;20058;-61
2022/11/13 03:29:26;;;;;;;8.02;6.47;;;20.80;54.10;;;;;;5089536;28;20576;-62
2022/11/13 03:32:13;;;;;;;5.43;4.07;;;20.80;54.00;;;;;;5089692;28;20072;-62
2022/11/13 03:34:59;;;;;;;6.30;5.07;;;20.80;54.00;;;;;;5089346;28;20045;-62
2022/11/13 03:37:44;;;;;;;6.40;4.95;;;20.70;54.00;;;;;;5089490;28;20529;-61
2022/11/13 03:40:30;;;;;;;5.63;3.67;;;20.70;53.90;;;;;;5089793;28;20044;-62
2022/11/13 03:43:15;;;;;;;6.50;4.82;;;20.70;53.90;;;;;;5089322;28;20048;-62
2022/11/13 03:46:01;;;;;;;4.80;4.07;;;20.70;53.90;;;;;;5088852;28;20032;-62
2022/11/13 03:48:47;;;;;;;5.18;4.68;;;20.70;53.90;;;;;;5088311;28;20032;-64
2022/11/13 03:51:33;;;;;;;4.38;3.78;;;20.80;54.00;;;;;;5089019;28;20044;-63
2022/11/13 03:54:19;;;;;;;4.40;4.00;;;20.70;54.00;;;;;;5089529;28;20040;-62
2022/11/13 03:57:05;;;;;;;14.70;4.93;;;20.70;53.90;;;;;;5089188;28;20048;-62
2022/11/13 03:59:50;;;;;;;;;;;20.70;53.90;;;;;;5089345;28;20032;-63
2022/11/13 04:02:36;;;;;;;5.80;3.72;;;20.70;53.90;;;;;;5088776;28;19919;-62
2022/11/13 04:05:24;;;;;;;8.63;3.53;;;20.60;54.00;;;;;;5088917;28;20052;-62
2022/11/13 04:08:09;;;;;;;5.07;3.55;;;20.60;54.00;;;;;;5088897;28;20194;-62
2022/11/13 04:10:55;;;;;;;11.25;3.92;;;20.60;53.90;;;;;;5088805;28;20130;-62
2022/11/13 04:13:40;;;;;;;4.78;4.03;;;20.60;53.90;;;;;;5089098;28;20101;-61
2022/11/13 04:16:26;;;;;;;6.80;4.65;;;20.60;53.90;;;;;;5088487;28;20408;-62
2022/11/13 04:19:11;;;;;;;4.65;4.18;;;20.60;53.80;;;;;;5088950;28;20036;-62
2022/11/13 04:21:58;;;;;;;4.82;3.97;;;20.60;53.80;;;;;;5088686;28;20048;-62
2022/11/13 04:24:44;;;;;;;5.18;3.63;;;20.60;53.80;;;;;;5088817;28;20064;-62
2022/11/13 04:27:29;;;;;;;3.42;3.22;;;20.60;53.80;;;;;;5088563;28;20040;-62
2022/11/13 04:30:15;;;;;;;5.17;3.83;;;20.60;53.80;;;;;;5087865;28;20036;-63
2022/11/13 04:33:01;;;;;;;4.35;3.75;;;20.60;53.90;;;;;;5088265;28;20047;-62
2022/11/13 04:35:47;;;;;;;6.95;3.95;;;20.60;53.90;;;;;;5079485;28;20064;-62
2022/11/13 04:38:34;;;;;;;4.15;3.80;;;20.60;53.90;;;;;;5068334;28;20048;-63
2022/11/13 04:44:23;;;;;;;6.53;4.15;;;20.60;53.90;;;;;;5088465;28;20054;-61
2022/11/13 04:47:09;;;;;;;6.50;3.70;;;20.50;53.90;;;;;;5088159;28;20044;-65
2022/11/13 04:49:55;;;;;;;3.70;3.40;;;20.50;53.80;;;;;;5088579;28;20036;-66
2022/11/13 04:52:40;;;;;;;3.70;3.40;;;20.50;53.80;;;;;;5086374;28;20063;-64
2022/11/13 04:55:27;;;;;;;5.40;3.20;;;20.50;53.80;;;;;;5088495;28;20036;-63
2022/11/13 04:58:13;;;;;;;3.45;3.15;;;20.50;53.70;;;;;;5088379;28;20062;-63
2022/11/13 05:00:58;;;;;;;4.45;2.80;;;20.50;53.80;;;;;;5088005;28;20063;-61
2022/11/13 05:03:44;;;;;;;3.25;3.05;;;20.50;53.90;;;;;;5088384;28;20181;-65
2022/11/13 05:06:29;;;;;;;4.20;2.63;;;20.50;53.90;;;;;;5089305;28;20063;-61
2022/11/13 05:09:15;;;;;;;4.80;3.60;;;20.50;53.90;;;;;;5108617;28;20088;-62
2022/11/13 05:12:03;;;;;;;5.93;3.53;;;20.50;53.90;;;;;;5083605;28;20506;-57
2022/11/13 05:14:49;;;;;;;3.53;2.72;;;20.50;54.30;;;;;;5082485;28;20032;-52
2022/11/13 05:17:35;;;;;;;3.03;2.75;;;20.50;54.50;;;;;;5072628;28;20598;-53
2022/11/13 05:20:20;;;;;;;7.68;2.33;;;20.50;54.60;;;;;;5087870;28;20048;-56
2022/11/13 05:23:06;;;;;;;9.30;3.42;;;20.60;54.60;;;;;;5081569;28;20044;-58
2022/11/13 05:25:52;;;;;;;3.13;2.50;;;20.60;54.50;;;;;;5086187;28;20041;-57
2022/11/13 05:28:39;;;;;;;4.28;2.75;;;20.60;54.40;;;;;;5086400;28;20084;-56
2022/11/13 05:31:26;;;;;;;2.92;2.72;;;20.70;54.30;;;;;;5085694;28;20111;-54
2022/11/13 05:34:12;;;;;;;;;;;20.60;54.20;;;;;;5086922;28;20036;-54
2022/11/13 05:36:57;;;;;;;6.15;2.80;;;20.60;54.10;;;;;;5084566;28;20022;-56
2022/11/13 05:39:43;;;;;;;3.05;2.80;;;20.60;54.20;;;;;;5086776;28;20044;-58
2022/11/13 05:42:28;;;;;;;3.45;2.95;;;20.60;54.00;;;;;;5090034;28;20090;-57
2022/11/13 05:45:15;;;;;;;3.50;3.17;;;20.60;53.90;;;;;;5089332;28;20028;-52
2022/11/13 05:48:01;;;;;;;4.18;3.00;;;20.70;53.80;;;;;;5090862;28;20039;-54
2022/11/13 05:50:46;;;;;;;3.33;2.75;;;20.70;53.60;;;;;;5091254;28;20036;-53
2022/11/13 05:53:34;;;;;;;3.55;3.25;;;20.70;53.60;;;;;;5090925;28;20122;-49
2022/11/13 05:56:22;;;;;;;10.70;3.00;;;20.70;53.70;;;;;;5091010;28;20122;-56
2022/11/13 05:59:08;;;;;;;4.30;3.40;;;20.70;53.80;;;;;;5090639;28;20044;-55
2022/11/13 06:01:55;;;;;;;4.95;2.90;;;20.70;53.80;;;;;;5090668;28;20036;-49
2022/11/13 06:04:40;;;;;;;4.55;3.25;;;20.70;53.70;;;;;;5090911;28;20044;-52
2022/11/13 06:07:26;;;;;;;2.67;2.42;;;20.80;53.70;;;;;;5090142;28;20043;-53
2022/11/13 06:10:12;;;;;;;7.13;3.30;;;20.70;53.80;;;;;;5090307;28;20515;-50
2022/11/13 06:12:57;;;;;;;16.60;5.40;;;20.80;53.80;;;;;;5086240;28;20535;-53
2022/11/13 06:15:43;;;;;;;10.52;6.85;;;20.80;53.80;;;;;;5090067;28;20826;-53
2022/11/13 06:18:30;;;;;;;10.43;8.10;;;20.80;53.90;;;;;;5090525;28;20139;-54
2022/11/13 06:21:18;;;;;;;14.45;8.43;;;20.80;53.90;;;;;;5089436;28;20032;-53
2022/11/13 06:24:04;;;;;;;22.63;13.00;;;20.80;54.00;;;;;;5089295;28;20512;-50
2022/11/13 06:26:50;;;;;;;27.92;17.40;;;20.80;53.90;;;;;;5089692;28;20040;-54
2022/11/13 06:29:35;;;;;;;42.47;20.25;;;20.80;54.00;;;;;;5089569;28;20478;-51
2022/11/13 06:32:21;;;;;;;36.58;21.33;;;20.80;54.10;;;;;;5088845;28;20040;-52
2022/11/13 06:35:08;;;;;;;42.65;21.45;;;20.80;54.20;;;;;;5069005;28;20059;-51
2022/11/13 06:37:55;;;;;;;41.80;25.60;;;20.80;54.20;;;;;;5089966;28;20040;-50
2022/11/13 06:40:40;;;;;;;43.97;27.30;;;20.90;54.30;;;;;;5087875;28;20040;-51
2022/11/13 06:43:26;;;;;;;50.97;30.48;;;20.80;54.30;;;;;;5088197;28;20073;-48
2022/11/13 06:46:14;;;;;;;61.33;33.77;;;20.90;54.40;;;;;;5088918;28;20082;-52
2022/11/13 06:49:00;;;;;;;62.58;39.45;;;20.90;54.40;;;;;;5087231;28;20055;-57
2022/11/13 06:51:47;;;;;;;64.65;37.35;;;20.90;55.20;;;;;;5093940;28;20035;-55
2022/11/13 06:54:32;;;;;;;56.70;33.20;;;20.90;54.80;;;;;;5110115;28;20423;-51
2022/11/13 06:57:18;;;;;;;58.40;29.52;;;20.90;54.90;;;;;;5110240;28;20119;-51
2022/11/13 07:00:05;;;;;;;49.70;27.27;;;20.90;54.70;;;;;;5110080;28;20813;-60
2022/11/13 07:02:51;;;;;;;43.35;26.83;;;20.90;54.40;;;;;;5080527;28;20072;-62
2022/11/13 07:05:37;;;;;;;38.90;24.60;;;20.90;54.30;;;;;;5069243;28;20501;-52
2022/11/13 07:08:24;;;;;;;36.22;21.38;;;20.90;54.40;;;;;;5069266;28;20551;-54
2022/11/13 07:11:11;;;;;;;36.38;20.08;;;20.80;54.30;;;;;;5076608;28;20040;-55
2022/11/13 07:13:56;;;;;;;40.53;20.35;;;20.80;54.20;;;;;;5089725;28;20072;-53
2022/11/13 07:16:42;;;;;;;33.72;19.65;;;20.80;54.20;;;;;;5091815;28;20167;-54
2022/11/13 07:19:27;;;;;;;24.52;15.10;;;20.70;54.00;;;;;;5089403;28;20186;-56
2022/11/13 07:22:13;;;;;;;39.80;18.33;;;20.70;54.00;;;;;;5089349;28;20048;-55
2022/11/13 07:25:00;;;;;;;27.23;16.10;;;20.70;53.90;;;;;;5089519;28;20040;-55
2022/11/13 07:27:45;;;;;;;;;;;20.60;53.90;;;;;;5089790;28;20447;-52
2022/11/13 07:30:31;;;;;;;20.80;14.18;;;20.60;53.80;;;;;;5089077;28;19920;-55
2022/11/13 07:33:16;;;;;;;22.65;13.50;;;20.50;53.90;;;;;;5089205;28;20043;-56
2022/11/13 07:36:02;;;;;;;26.23;16.42;;;20.50;53.80;;;;;;5087145;28;20040;-53
2022/11/13 07:38:47;;;;;;;20.73;13.15;;;20.50;53.80;;;;;;5089086;28;20830;-56
2022/11/13 07:41:34;;;;;;;18.05;11.57;;;20.50;53.60;;;;;;5088558;28;20051;-57
2022/11/13 07:44:20;;;;;;;17.35;11.80;;;20.50;53.50;;;;;;5089197;28;20044;-53
2022/11/13 07:47:06;;;;;;;17.48;10.55;;;20.40;53.50;;;;;;5088934;28;20032;-56
2022/11/13 07:49:51;;;;;;;16.33;10.18;;;20.40;53.50;;;;;;5086356;28;20044;-52
2022/11/13 07:52:37;;;;;;;14.27;10.17;;;20.40;53.50;;;;;;5088551;28;20480;-54
2022/11/13 07:55:22;;;;;;;15.95;9.70;;;20.30;53.40;;;;;;5088434;28;20048;-55
2022/11/13 07:58:09;;;;;;;11.48;8.20;;;20.30;53.40;;;;;;5088686;28;20040;-57
2022/11/13 08:00:55;;;;;;;17.88;9.10;;;20.30;53.40;;;;;;5070538;28;20131;-57
2022/11/13 08:03:40;;;;;;;10.75;7.85;;;20.20;53.40;;;;;;5088150;28;20115;-55
2022/11/13 08:06:26;;;;;;;13.38;7.47;;;20.20;54.00;;;;;;5087920;28;20427;-55
2022/11/13 08:09:12;;;;;;;9.90;6.43;;;20.20;53.40;;;;;;5088041;28;20047;-52
2022/11/13 08:11:57;;;;;;;10.88;7.80;;;20.20;53.50;;;;;;5088132;28;20040;-58
2022/11/13 08:14:44;;;;;;;9.63;6.68;;;20.10;53.50;;;;;;5088195;28;20052;-53
2022/11/13 08:17:29;;;;;;;9.60;5.88;;;20.10;53.50;;;;;;5088473;28;20036;-57
2022/11/13 08:20:15;;;;;;;7.85;5.80;;;20.10;53.60;;;;;;5088599;28;20043;-58
2022/11/13 08:23:03;;;;;;;10.32;6.45;;;20.10;53.60;;;;;;5088451;28;20393;-57
2022/11/13 08:25:48;;;;;;;6.50;5.50;;;20.10;53.70;;;;;;5088631;28;20036;-56
2022/11/13 08:28:35;;;;;;;6.60;4.77;;;20.10;53.70;;;;;;5088492;28;20071;-57
2022/11/13 08:31:22;;;;;;;4.63;4.20;;;20.00;53.60;;;;;;5087889;28;20317;-56
2022/11/13 08:34:07;;;;;;;5.18;3.90;;;20.00;53.70;;;;;;5088073;28;20048;-53
2022/11/13 08:36:53;;;;;;;10.40;4.82;;;20.00;53.70;;;;;;5087878;28;20040;-55
2022/11/13 08:39:39;;;;;;;6.97;3.75;;;20.00;53.70;;;;;;5087405;28;20500;-56
2022/11/13 08:42:24;;;;;;;7.28;3.85;;;20.00;53.70;;;;;;5087887;28;20082;-55
2022/11/13 08:45:11;;;;;;;4.28;3.85;;;20.00;53.70;;;;;;5087582;28;20078;-57
2022/11/13 08:48:01;;;;;;;10.57;4.78;;;20.00;53.70;;;;;;5087804;28;20508;-56
2022/11/13 08:50:46;;;;;;;5.55;3.08;;;20.00;53.70;;;;;;5088072;28;20040;-54
2022/11/13 08:53:32;;;;;;;6.50;3.40;;;19.90;53.60;;;;;;5087313;28;20047;-57
2022/11/13 08:56:18;;;;;;;5.05;2.22;;;19.90;53.60;;;;;;5088233;28;20075;-52
2022/11/13 08:59:04;;;;;;;5.45;2.42;;;19.90;53.70;;;;;;5088106;28;20051;-52
2022/11/13 09:01:57;;;;;;;4.05;2.33;;;19.90;53.60;;;;;;5087785;28;20135;-57
2022/11/13 09:04:43;;;;;;;4.22;3.00;;;19.90;53.60;;;;;;5087781;28;20044;-57
2022/11/13 09:07:30;;;;;;;4.43;2.03;;;19.90;53.60;;;;;;5087286;28;20058;-57
2022/11/13 09:10:16;;;;;;;6.43;2.20;;;20.00;53.70;;;;;;5087739;28;20496;-56
2022/11/13 09:13:04;;;;;;;2.08;1.77;;;19.90;53.60;;;;;;5087654;28;20040;-54
2022/11/13 09:15:49;;;;;;;3.25;1.88;;;20.00;53.70;;;;;;5088173;28;20496;-56
2022/11/13 09:18:35;;;;;;;3.33;2.05;;;19.90;53.60;;;;;;5091880;28;20040;-54
2022/11/13 09:21:21;;;;;;;2.97;2.40;;;19.90;53.60;;;;;;5091551;28;20519;-56
2022/11/13 09:24:07;;;;;;;4.05;1.73;;;20.00;53.60;;;;;;5091716;28;20051;-55
2022/11/13 09:26:53;;;;;;;3.83;1.85;;;19.90;53.50;;;;;;5104769;28;20508;-56
2022/11/13 09:29:38;;;;;;;2.03;1.80;;;20.00;53.60;;;;;;5091704;28;20048;-52
2022/11/13 09:32:24;;;;;;;1.25;1.13;;;20.00;54.10;;;;;;5091785;28;20135;-55
2022/11/13 09:35:10;;;;;;;4.47;1.30;;;20.00;53.60;;;;;;5091760;28;20111;-57
2022/11/13 09:37:57;;;;;;;4.53;1.80;;;20.00;53.60;;;;;;5091432;28;20040;-54
2022/11/13 09:40:48;;;;;;;2.67;2.42;;;20.00;53.60;;;;;;5091549;28;20039;-56
2022/11/13 09:43:37;;;;;;;4.63;0.70;;;20.00;53.50;;;;;;5091216;28;20155;-58
2022/11/13 09:46:38;;;;;;;4.90;1.20;;;20.00;53.50;;;;;;5091565;28;20063;-57
2022/11/13 09:49:28;;;;;;;2.13;1.75;;;20.10;53.50;;;;;;5091577;28;20567;-58
2022/11/13 09:52:18;;;;;;;2.13;1.13;;;20.10;53.50;;;;;;5091026;28;20048;-57
2022/11/13 09:55:10;;;;;;;3.03;0.82;;;20.10;53.30;;;;;;5091194;28;20143;-56
2022/11/13 09:58:00;;;;;;;1.70;0.50;;;20.10;53.30;;;;;;5091424;28;20437;-57
2022/11/13 10:00:46;;;;;;;2.30;0.95;;;20.20;53.40;;;;;;5091044;28;20507;-55
2022/11/13 10:03:38;;;;;;;1.05;0.88;;;20.20;53.30;;;;;;5091156;28;20044;-55
2022/11/13 10:06:34;;;;;;;1.92;1.80;;;20.20;53.30;;;;;;5091053;28;20048;-56
2022/11/13 10:09:29;;;;;;;1.50;0.75;;;20.30;53.20;;;;;;5090873;28;20574;-56
2022/11/13 10:12:16;;;;;;;2.10;1.33;;;20.30;53.10;;;;;;5090951;28;20516;-57
2022/11/13 10:15:04;;;;;;;1.38;0.90;;;20.30;53.00;;;;;;5090866;28;20052;-53
2022/11/13 10:17:53;;;;;;;2.72;1.50;;;20.40;53.00;;;;;;5090504;28;20055;-55
2022/11/13 10:20:43;;;;;;;2.50;1.05;;;20.40;52.80;;;;;;5090699;28;20036;-55
2022/11/13 10:23:32;;;;;;;1.55;1.13;;;20.50;52.80;;;;;;5090573;28;20043;-55
2022/11/13 10:26:19;;;;;;;2.08;0.95;;;20.50;52.70;;;;;;5090962;28;20133;-57
2022/11/13 10:29:12;;;;;;;2.22;0.90;;;20.60;52.70;;;;;;5089676;28;20062;-57
2022/11/13 10:31:59;;;;;;;1.08;0.98;;;20.70;52.50;;;;;;5090518;28;20530;-56
2022/11/13 10:34:49;;;;;;;1.42;1.33;;;20.70;52.40;;;;;;5090346;28;20464;-57
2022/11/13 10:37:48;;;;;;;6.53;1.20;;;20.80;52.10;;;;;;5090823;28;20123;-57
2022/11/13 10:40:35;;;;;;;2.53;0.90;;;20.90;51.90;;;;;;5090453;28;20040;-57
2022/11/13 10:43:23;;;;;;;1.17;1.00;;;20.90;51.70;;;;;;5090299;28;20052;-52
2022/11/13 10:46:20;;;;;;;1.55;1.10;;;21.10;51.60;;;;;;5071918;28;20044;-57
2022/11/13 10:49:13;;;;;;;0.85;0.85;;;21.20;51.40;;;;;;5090151;28;20044;-57
2022/11/13 10:52:01;;;;;;;1.83;0.70;;;21.20;51.20;;;;;;5090032;28;20036;-57
2022/11/13 10:54:47;;;;;;;2.30;2.08;;;21.20;51.10;;;;;;5089761;28;20047;-56
2022/11/13 10:57:34;;;;;;;0.68;0.65;;;21.30;51.00;;;;;;5090222;28;20516;-54
2022/11/13 11:00:23;;;;;;;1.05;0.65;;;21.40;50.90;;;;;;5090070;28;20036;-54
2022/11/13 11:03:13;;;;;;;0.60;0.57;;;21.40;50.70;;;;;;5089741;28;20070;-56
2022/11/13 11:06:02;;;;;;;0.60;0.60;;;21.50;50.70;;;;;;5073701;28;20135;-56
2022/11/13 11:08:48;;;;;;;0.93;0.65;;;21.50;50.60;;;;;;5069741;28;20044;-54
2022/11/13 11:14:42;;;;;;;0.60;0.60;;;21.60;50.60;;;;;;5089920;28;19920;-53
2022/11/13 11:17:33;;;;;;;0.82;0.35;;;21.60;50.50;;;;;;5089482;28;20151;-55
2022/11/13 11:20:25;;;;;;;1.25;1.17;;;21.70;50.40;;;;;;5106083;28;20068;-56
2022/11/13 11:23:22;;;;;;;0.73;0.73;;;21.80;50.30;;;;;;5110040;28;20040;-54
2022/11/13 11:26:11;;;;;;;;;;;21.90;50.20;;;;;;5110540;28;20039;-56
2022/11/13 11:29:08;;;;;;;0.85;0.55;;;21.80;50.20;;;;;;5110333;28;19924;-55
2022/11/13 11:31:58;;;;;;;3.58;1.05;;;21.90;50.30;;;;;;5109466;28;20546;-55
2022/11/13 11:34:47;;;;;;;0.65;0.65;;;21.90;50.20;;;;;;5109808;28;20051;-52
2022/11/13 11:37:39;;;;;;;0.63;0.43;;;22.00;50.10;;;;;;5110156;28;20437;-52
2022/11/13 11:40:30;;;;;;;0.60;0.50;;;22.10;50.20;;;;;;5109709;28;20567;-55
2022/11/13 11:43:20;;;;;;;1.33;0.80;;;22.10;50.10;;;;;;5089463;28;20173;-55
2022/11/13 11:46:09;;;;;;;1.08;0.77;;;22.10;50.10;;;;;;5088911;28;20389;-53
2022/11/13 11:48:57;;;;;;;0.40;0.40;;;22.20;50.10;;;;;;5089451;28;20424;-55
2022/11/13 11:51:55;;;;;;;0.70;0.50;;;22.20;50.10;;;;;;5089212;28;20050;-55
2022/11/13 11:54:46;;;;;;;2.35;0.88;;;22.30;50.20;;;;;;5073310;28;20119;-56
2022/11/13 11:57:46;;;;;;;0.63;0.32;;;22.30;50.20;;;;;;5068720;28;20040;-54
2022/11/13 12:00:33;;;;;;;0.70;0.60;;;22.40;50.10;;;;;;5068291;28;20036;-55
2022/11/13 12:03:36;;;;;;;0.55;0.40;;;22.40;50.00;;;;;;5068645;28;20125;-53
2022/11/13 12:06:34;;;;;;;0.40;0.28;;;22.50;49.80;;;;;;5068760;28;20041;-54
2022/11/13 12:09:26;;;;;;;0.60;0.30;;;22.50;49.80;;;;;;5068752;28;20110;-56
2022/11/13 12:12:25;;;;;;;0.60;0.45;;;22.50;49.80;;;;;;5085067;28;20043;-57
2022/11/13 12:15:20;;;;;;;0.73;0.43;;;22.60;49.60;;;;;;5088462;28;20044;-56
2022/11/13 12:18:13;;;;;;;0.50;0.50;;;22.60;49.50;;;;;;5088881;28;20048;-57
2022/11/13 12:21:09;;;;;;;1.77;0.30;;;22.70;50.10;;;;;;5089010;28;20127;-56
2022/11/13 12:24:11;;;;;;;0.85;0.73;;;22.70;49.30;;;;;;5088586;28;20036;-54
2022/11/13 12:27:11;;;;;;;1.00;0.52;;;22.70;49.30;;;;;;5088673;28;20043;-56
2022/11/13 12:30:08;;;;;;;1.25;0.60;;;22.80;49.20;;;;;;5070126;28;20151;-54
2022/11/13 12:33:08;;;;;;;0.73;0.63;;;22.80;49.20;;;;;;5088600;28;20039;-53
2022/11/13 12:35:54;;;;;;;1.00;0.88;;;22.90;49.20;;;;;;5088398;28;20043;-56
2022/11/13 12:38:48;;;;;;;0.65;0.47;;;22.90;49.20;;;;;;5088318;28;20691;-55
2022/11/13 12:41:39;;;;;;;0.40;0.38;;;22.90;49.20;;;;;;5088379;28;20067;-53
2022/11/13 12:44:26;;;;;;;0.77;0.77;;;22.90;49.10;;;;;;5070695;28;20040;-55
2022/11/13 12:47:14;;;;;;;0.80;0.50;;;23.00;49.20;;;;;;5088565;28;20067;-52
2022/11/13 12:50:01;;;;;;;0.60;0.50;;;23.00;49.20;;;;;;5088370;28;20047;-55
2022/11/13 12:52:58;;;;;;;0.52;0.52;;;23.00;49.20;;;;;;5087984;28;20031;-50
2022/11/13 12:55:58;;;;;;;1.30;0.45;;;23.10;49.20;;;;;;5088428;28;20040;-54
2022/11/13 12:58:54;;;;;;;1.90;0.55;;;23.10;49.20;;;;;;5088128;28;20505;-53
2022/11/13 13:01:45;;;;;;;0.35;0.35;;;23.20;49.20;;;;;;5088265;28;20047;-52
2022/11/13 13:04:49;;;;;;;1.27;0.40;;;23.20;49.20;;;;;;5088476;28;20114;-53
2022/11/13 13:07:58;;;;;;;1.38;0.57;;;23.30;49.20;;;;;;5088443;28;20533;-56
2022/11/13 13:11:04;;;;;;;0.75;0.75;;;23.30;49.20;;;;;;5092084;28;20036;-52
2022/11/13 13:13:59;;;;;;;0.50;0.50;;;23.40;49.20;;;;;;5087622;28;20036;-57
2022/11/13 13:16:45;;;;;;;0.98;0.25;;;23.40;49.00;;;;;;5067844;28;20120;-56
2022/11/13 13:19:32;;;;;;;2.13;0.53;;;23.40;48.90;;;;;;5068023;28;20041;-55
2022/11/13 13:22:28;;;;;;;4.43;1.02;;;23.40;48.80;;;;;;5068313;28;20326;-57
2022/11/13 13:25:25;;;;;;;1.00;0.80;;;23.50;48.70;;;;;;5068119;28;20036;-57
2022/11/13 13:28:20;;;;;;;1.00;0.65;;;23.50;48.70;;;;;;5067543;28;20512;-54
2022/11/13 13:31:14;;;;;;;2.15;0.75;;;23.60;48.60;;;;;;5079355;28;20048;-55
2022/11/13 13:34:16;;;;;;;1.65;1.05;;;23.60;48.50;;;;;;5087791;28;20044;-56
2022/11/13 13:37:12;;;;;;;2.20;0.55;;;23.60;48.20;;;;;;5087995;28;20060;-55
2022/11/13 13:40:14;;;;;;;0.43;0.43;;;23.60;48.10;;;;;;5088019;28;20067;-57
2022/11/13 13:43:28;;;;;;;1.13;0.63;;;23.70;48.00;;;;;;5087517;28;20044;-56
2022/11/13 13:46:16;;;;;;;0.80;0.80;;;23.70;47.90;;;;;;5087956;28;20130;-57
2022/11/13 13:49:05;;;;;;;1.02;0.40;;;23.80;47.90;;;;;;5087652;28;20032;-57
2022/11/13 13:51:53;;;;;;;1.30;1.20;;;23.80;47.80;;;;;;5075717;28;20127;-59
2022/11/13 13:54:41;;;;;;;1.98;1.33;;;23.80;47.80;;;;;;5087581;28;20503;-57
2022/11/13 13:57:29;;;;;;;1.30;0.95;;;23.90;47.70;;;;;;5087618;28;20187;-57
2022/11/13 14:00:23;;;;;;;0.80;0.80;;;23.90;47.60;;;;;;5087631;28;20040;-56
2022/11/13 14:03:18;;;;;;;7.18;1.65;;;24.00;47.50;;;;;;5088631;28;20043;-56
2022/11/13 14:06:18;;;;;;;2.03;0.60;;;24.00;47.40;;;;;;5091346;28;20044;-55
2022/11/13 14:09:11;;;;;;;1.90;0.85;;;24.10;47.40;;;;;;5091216;28;20042;-55
2022/11/13 14:11:58;;;;;;;3.22;1.63;;;24.10;47.20;;;;;;5090759;28;20521;-51
2022/11/13 14:14:45;;;;;;;3.88;1.17;;;24.10;47.10;;;;;;5091243;28;20047;-55
2022/11/13 14:17:33;;;;;;;2.55;1.35;;;24.20;47.00;;;;;;5091060;28;20036;-56
2022/11/13 14:20:19;;;;;;;2.67;1.00;;;24.20;46.90;;;;;;5070941;28;20043;-55
2022/11/13 14:23:05;;;;;;;;;;;24.30;46.80;;;;;;5071363;28;20501;-55
2022/11/13 14:25:51;;;;;;;1.05;0.93;;;24.20;46.80;;;;;;5052566;28;19924;-57
2022/11/13 14:28:45;;;;;;;1.30;1.13;;;24.20;46.80;;;;;;5070738;28;20409;-54
2022/11/13 14:31:35;;;;;;;1.55;0.90;;;24.30;46.70;;;;;;5070310;28;20044;-55
2022/11/13 14:34:23;;;;;;;1.65;0.90;;;24.20;46.60;;;;;;5070678;28;20036;-56
2022/11/13 14:37:20;;;;;;;4.82;1.00;;;24.20;46.50;;;;;;5070446;28;20402;-56